Aviation Digital Data Service (ADDS)

Output produced by METARs form (0920 UTC 07 December 2022)
found at http://www.aviationweather.gov/metar/data/
 
KMEI 070858Z AUTO 19007KT 10SM OVC010 21/19 A3020 RMK AO2 SLP221 I1000 I3/// T02060194 53010
KMEI 070758Z AUTO 19006KT 10SM OVC010 21/19 A3018 RMK AO2 CIG 009V015 SLP216 I1000 T02060194
KMEI 070708Z AUTO 20007KT 10SM BKN010 BKN045 21/19 A3016 RMK AO2 I1000 T02060189
KMEI 070658Z AUTO 19008KT 10SM SCT011 SCT045 20/19 A3016 RMK AO2 SLP211 I1000 T02000189
KMEI 070651Z AUTO 19008KT 10SM SCT011 SCT045 20/19 A3016 RMK AO2 I1000 T02000189
KMEI 070642Z AUTO 20007KT 10SM BKN011 21/19 A3017 RMK AO2 I1000 T02060189
KMEI 070634Z AUTO 19008KT 10SM SCT011 21/19 A3016 RMK AO2 I1000 T02060189
KMEI 070558Z AUTO 19006KT 10SM BKN012 21/19 A3017 RMK AO2 SLP211 I1000 I6/// T02060189 10217 20200 402670189 51015
KMEI 070458Z AUTO 18007KT 10SM CLR 21/19 A3016 RMK AO2 SLP210 I1000 T02060189
KMEI 070358Z 19006KT 10SM CLR 21/19 A3015 RMK AO2 SLP205 I1000 T02060189
KMEI 070258Z 18009KT 10SM CLR 21/18 A3012 RMK AO2 SLP197 I1000 I3/// T02110183 51015
KMEI 070158Z 19008KT 10SM CLR 22/18 A3011 RMK AO2 SLP194 I1000 T02170183
KMEI 070058Z 20005KT 10SM CLR 22/18 A3010 RMK AO2 SLP188 I1000 T02170178
KMEI 062358Z 18004KT 10SM CLR 22/18 A3008 RMK AO2 SLP182 I1000 I6/// T02170178 10267 20217 51012
KMEI 062258Z 17006KT 10SM CLR 23/17 A3007 RMK AO2 SLP180 I1000 T02330172
KMEI 062158Z 20006KT 10SM CLR 26/17 A3006 RMK AO2 SLP178 I1000 T02560172
KMEI 062058Z 20014KT 10SM BKN060 27/17 A3004 RMK AO2 SLP170 I1000 I3/// T02670167 56010
KMEI 061958Z 20013G22KT 10SM FEW043 SCT050 SCT065 26/17 A3004 RMK AO2 SLP170 I1000 T02610172
KMEI 061858Z 20011KT 10SM SCT038 SCT050 25/18 A3006 RMK AO2 SLP177 I1000 T02500178
KMEI 061805Z 22011KT 10SM FEW025 SCT030 BKN055 26/19 A3007 RMK AO2 I1000 T02560189
KMEI 061758Z 24009KT 10SM SCT018 BKN027 BKN065 26/19 A3008 RMK AO2 SLP181 I1000 I6/// T02560194 10256 20194 58008
KMEI 061705Z 18012G20KT 10SM BKN018 BKN022 OVC032 24/19 A3010 RMK AO2 I1000 T02390194
KMEI 061658Z 21010KT 10SM BKN010 BKN012 OVC018 24/19 A3010 RMK AO2 SLP189 I1000 T02390194
KMEI 061558Z 20011KT 10SM OVC010 22/20 A3011 RMK AO2 SLP194 I1000 T02220200
KMEI 061458Z 19007KT 10SM OVC010 22/19 A3010 RMK AO2 CIG 007V015 SLP190 I1000 I3/// T02170194 51016
KMEI 061451Z 19008KT 10SM OVC010 22/19 A3010 RMK AO2 CIG 007V012 I1000 T02170194
KMEI 061358Z 20006KT 6SM BR BKN008 BKN011 OVC060 21/19 A3009 RMK AO2 SLP185 I1000 T02060194
KMEI 061335Z 19007KT 10SM BKN008 BKN011 OVC060 20/19 A3008 RMK AO2 I1000 T02000189
KMEI 061328Z 19006KT 10SM SCT008 BKN011 OVC060 20/19 A3008 RMK AO2 I1000 T02000189
KMEI 061258Z 19006KT 10SM BKN008 BKN012 OVC060 19/19 A3007 RMK AO2 SLP179 I1000 T01940189
KMEI 061211Z 18007KT 10SM BKN009 OVC014 19/19 A3005 RMK AO2 CIG 007V012 I1000 T01940189
KMEI 061158Z 18006KT 10SM OVC012 19/19 A3005 RMK AO2 SLP173 60000 I1000 I6/// T01940189 10200 20189 51008
KMEI 061136Z 19005KT 10SM OVC011 19/18 A3005 RMK AO2 I1000 T01940183
KMEI 061120Z AUTO 20006KT 10SM BKN009 BKN014 OVC040 19/18 A3004 RMK AO2 CIG 007V012 I1000 T01940183
KMEI 061113Z AUTO 21006KT 10SM BKN011 BKN015 OVC060 19/18 A3005 RMK AO2 I1000 T01940183
KMEI 061058Z AUTO 21005KT 10SM FEW009 SCT038 BKN060 19/18 A3004 RMK AO2 SLP170 I1000 T01940183
KMEI 061053Z AUTO 20006KT 10SM FEW009 BKN038 BKN060 19/18 A3004 RMK AO2 I1000
KMEI 060958Z AUTO 19006KT 10SM FEW032 19/18 A3003 RMK AO2 SLP165 I1000 T01940183
KMEI 060934Z AUTO 19006KT 10SM SCT013 19/18 A3003 RMK AO2 I1000 T01890183
KMEI 060858Z AUTO 19006KT 10SM BKN013 OVC021 20/18 A3002 RMK AO2 RAB48E58 SLP164 P0000 60000 I1000 I3/// T02000183 53006
KMEI 060758Z AUTO 19007KT 10SM BKN015 20/18 A3001 RMK AO2 SLP160 I1000 T02000183
KMEI 060658Z AUTO 19007KT 10SM BKN015 OVC020 20/18 A3001 RMK AO2 SLP158 I1000 T02000183
KMEI 060651Z AUTO 19007KT 10SM BKN015 OVC020 20/18 A3000 RMK AO2 I1000 T02000183
KMEI 060558Z AUTO 20006KT 10SM OVC013 19/18 A3001 RMK AO2 SLP158 I1000 I6/// T01940183 10200 20189 402220133 51006
KMEI 060546Z AUTO 19006KT 10SM OVC016 19/18 A3000 RMK AO2 I1000 T01940183
KMEI 060514Z AUTO 19006KT 10SM BKN012 19/18 A3000 RMK AO2 I1000 T01890183
KMEI 060458Z AUTO 19005KT 10SM FEW012 19/18 A3000 RMK AO2 SLP155 I1000 T01890178
KMEI 060437Z AUTO 18007KT 10SM SCT015 19/18 A2999 RMK AO2 I1000 T01940178
KMEI 060358Z 20007KT 10SM BKN013 BKN080 19/18 A3000 RMK AO2 SLP155 I1000 T01940183
KMEI 060258Z 19009KT 10SM FEW050 SCT080 19/18 A2999 RMK AO2 SLP152 I1000 I3/// T01940178 50004
KMEI 060158Z 19008KT 10SM BKN060 BKN080 19/18 A2999 RMK AO2 SLP153 I1000 T01940178
KMEI 060058Z 19007KT 10SM BKN080 20/17 A2999 RMK AO2 SLP152 I1000 T02000172
KMEI 052358Z 18006KT 10SM OVC075 20/17 A2998 RMK AO2 SLP148 I1000 I6/// T02000172 10222 20200 53004
KMEI 052258Z 18005KT 10SM OVC075 21/17 A2997 RMK AO2 SLP146 I1000 T02060167
KMEI 052158Z 20007KT 10SM OVC075 21/17 A2997 RMK AO2 SLP145 I1000 T02110167
KMEI 052058Z 19013KT 10SM FEW060 OVC075 22/17 A2996 RMK AO2 SLP144 I1000 I3/// T02220167 55014
KMEI 051958Z 19012G18KT 10SM SCT055 OVC080 22/17 A2996 RMK AO2 SLP144 I1000 T02220167
KMEI 051858Z 20007KT 10SM OVC065 22/17 A2998 RMK AO2 SLP152 I1000 T02170167
KMEI 051758Z 19009KT 10SM OVC070 21/17 A3000 RMK AO2 SLP158 I1000 I6/// T02110167 10211 20133 58017
KMEI 051729Z 21009KT 10SM FEW017 BKN075 21/17 A3002 RMK AO2 I1000 T02110167
KMEI 051658Z 22010KT 10SM BKN009 BKN075 21/17 A3004 RMK AO2 SLP170 I1000 T02060167
KMEI 051634Z 20012KT 10SM BKN010 OVC014 19/17 A3004 RMK AO2 CIG 007V012 I1000 T01940167
KMEI 051558Z 20010KT 5SM BR OVC006 18/16 A3006 RMK AO2 SLP176 I1000 T01780161
KMEI 051458Z 19011KT 5SM BR OVC005 17/15 A3006 RMK AO2 SLP176 I1000 I3/// T01670150 50006
KMEI 051446Z 18011KT 5SM BR OVC005 16/15 A3006 RMK AO2 I1000 T01610150
KMEI 051405Z 20009KT 7SM OVC004 15/14 A3006 RMK AO2 I1000 T01500139
KMEI 051358Z 21008KT 2SM BR OVC004 15/14 A3006 RMK AO2 SLP176 I1000 T01500139
KMEI 051331Z 19008KT 2SM BR OVC003 14/14 A3005 RMK AO2 I1000 T01440139
KMEI 051258Z 19006KT 5SM BR OVC003 14/13 A3005 RMK AO2 SLP174 I1000 T01390133
KMEI 051207Z 19005KT 10SM OVC004 14/13 A3004 RMK AO2 I1000 T01390128
KMEI 051158Z 19003KT 10SM OVC005 13/12 A3004 RMK AO2 SLP169 I1000 I6/// T01330122 10139 20133 56011
KMEI 051058Z AUTO 00000KT 10SM OVC007 14/11 A3005 RMK AO2 SLP172 I1000 T01390111
KMEI 050958Z AUTO 00000KT 10SM OVC009 14/11 A3006 RMK AO2 SLP176 I1000 T01390111
KMEI 050858Z AUTO 05003KT 10SM OVC012 14/11 A3007 RMK AO2 SLP181 I1000 I3/// T01390111 56011
KMEI 050845Z AUTO 05004KT 10SM OVC014 14/11 A3007 RMK AO2 I1000 T01390111
KMEI 050758Z AUTO 07004KT 10SM BKN018 OVC070 14/11 A3008 RMK AO2 SLP183 I1000 T01390111
KMEI 050658Z AUTO 00000KT 10SM OVC020 14/11 A3009 RMK AO2 SLP187 I1000 T01390111
KMEI 050558Z AUTO 00000KT 10SM BKN020 OVC070 14/11 A3010 RMK AO2 SLP192 I1000 I6/// T01390106 10144 20133 401780089 58016
KMEI 050551Z AUTO 00000KT 10SM BKN020 OVC065 14/11 A3011 RMK AO2 I1000 T01390106
KMEI 050458Z AUTO 00000KT 10SM OVC070 14/11 A3012 RMK AO2 SLP198 I1000 T01390106
KMEI 050358Z 04004KT 10SM OVC032 14/11 A3015 RMK AO2 SLP208 I1000 T01390106
KMEI 050258Z 09003KT 10SM OVC034 14/10 A3015 RMK AO2 SLP209 I1000 I3/// T01390100 58003
KMEI 050158Z 05003KT 10SM OVC035 14/11 A3017 RMK AO2 SLP214 I1000 T01440111
KMEI 050058Z 00000KT 10SM OVC060 14/12 A3015 RMK AO2 SLP210 I1000 T01390117
KMEI 042358Z 00000KT 10SM CLR 14/11 A3016 RMK AO2 SLP211 I1000 I6/// T01390111 10178 20133 55007
KMEI 042258Z 06004KT 10SM CLR 16/11 A3015 RMK AO2 SLP210 I1000 T01560106
KMEI 042158Z 00000KT 10SM SCT060 17/11 A3017 RMK AO2 SLP214 I1000 T01670106
KMEI 042058Z 02007KT 10SM OVC060 17/11 A3018 RMK AO2 SLP217 I1000 I3/// T01720111 56027
KMEI 041958Z 00000KT 10SM BKN039 OVC055 16/11 A3019 RMK AO2 SLP221 I1000 T01610106
KMEI 041858Z 00000KT 10SM OVC050 14/09 A3022 RMK AO2 SLP231 I1000 T01440089
KMEI 041822Z 00000KT 10SM FEW022 BKN034 OVC048 14/09 A3024 RMK AO2 I1000 T01390089
KMEI 041758Z 32004KT 10SM SCT024 BKN029 OVC035 13/08 A3026 RMK AO2 SLP245 I1000 I6/// T01330083 10133 20100 58015
KMEI 041748Z 32004KT 10SM BKN024 OVC043 13/08 A3027 RMK AO2 I1000 T01330083
KMEI 041658Z 00000KT 10SM OVC042 13/08 A3029 RMK AO2 SLP253 I1000 T01280078
KMEI 041558Z 00000KT 10SM OVC044 12/07 A3030 RMK AO2 SLP259 I1000 T01220072
KMEI 041458Z 35003KT 10SM OVC043 11/07 A3031 RMK AO2 SLP260 I1000 I3/// T01110072 51009
KMEI 041358Z 36005KT 10SM OVC043 11/07 A3030 RMK AO2 SLP258 I1000 T01060072
KMEI 041258Z 36005KT 10SM OVC045 10/08 A3029 RMK AO2 SLP255 I1000 T01000078
KMEI 041158Z 35006KT 10SM OVC044 10/08 A3028 RMK AO2 SLP250 I1000 I6/// T01000083 10139 20089 55000
KMEI 041058Z AUTO 36006KT 10SM CLR 09/08 A3026 RMK AO2 SLP246 I1000 T00890078
KMEI 040958Z AUTO 01004KT 10SM CLR 10/08 A3027 RMK AO2 SLP248 I1000 T01000083
KMEI 070606Z 0706/0806 19004KT P6SM BKN012 
     FM071100 21007KT 4SM BR BKN011 
     TEMPO 0711/0713 2SM BR OVC006 
     FM071900 23007KT P6SM SCT060